ロンドン/ヒースロー の空港の天気 - METARとTAF

ロンドン・ヒースロー空港 ( EGLL / LHR ) - イギリス ロンドン
飛行場実況気象(Metar)
観測時間11/20 09:20 GMT (11/20 09:20 UTC)
風向・風速西南西 7m/s
視程10km以上
天気現象
全天の4割程度の雲 雲底高度 640m
気温11℃
湿度82%
気圧1016hPa
METAREGLL 200920Z AUTO 24014KT 9999 SCT021 11/08 Q1016 NOSIG
過去の天気等 Google飛行場航空写真 Wunderground天気予報

過去48時間のMETAR

飛行場予報(TAF)
発表時間: 11/20 05:01 GMT (11/20 05:01 UTC)
予報対象時間: 20日6時 GMT ~ 21日12時 GMT
風向・風速南西 5m/s
視程10km以上
全天の8割程度の雲 雲底高度 910m
20日6時 GMT ~ 20日9時 GMT に徐々に
全天の8割程度の雲 雲底高度 430m
20日6時 GMT ~ 20日17時 GMT に一時的に
視程8,000m
天気現象弱い雨
20日6時 GMT ~ 20日7時 GMT に 確率 40% で一時的に
視程4,000m
天気現象
20日9時 GMT ~ 20日15時 GMT に一時的に
全天の8割程度の雲 雲底高度 550m
20日9時 GMT ~ 20日16時 GMT に 確率 30% で一時的に
風向・風速西南西 8m/s 瞬間風速 13m/s
20日17時 GMT ~ 21日3時 GMT に一時的に
視程3,500m
天気現象雨霧雨
全天の8割程度の雲 雲底高度 180m
21日5時 GMT ~ 21日8時 GMT に徐々に
全天の4割程度の雲 雲底高度 1,220m
TAF EGLL 200501Z 2006/2112 23010KT 9999 BKN030
BECMG 2006/2009 BKN014
TEMPO 2006/2017 8000 -RA
PROB40 TEMPO 2006/2007 4000 RA
TEMPO 2009/2015 BKN018
PROB30 TEMPO 2009/2016 25015G25KT
TEMPO 2017/2103 3500 RADZ BKN006
BECMG 2105/2108 SCT040